createdAt,value
2023-03-12T23:01:41.413Z,1009.50
2023-03-12T23:02:12.387Z,1009.51
2023-03-12T23:02:43.426Z,1009.51
2023-03-12T23:03:14.045Z,1009.53
2023-03-12T23:03:44.749Z,1009.52
2023-03-12T23:04:15.449Z,1009.52
2023-03-12T23:04:46.251Z,1009.51
2023-03-12T23:05:16.924Z,1009.50
2023-03-12T23:05:47.820Z,1009.51
2023-03-12T23:06:18.611Z,1009.50
2023-03-12T23:06:49.476Z,1009.49
2023-03-12T23:07:20.137Z,1009.48
2023-03-12T23:07:50.867Z,1009.48
2023-03-12T23:08:21.599Z,1009.47
2023-03-12T23:08:52.522Z,1009.48
2023-03-12T23:09:23.216Z,1009.46
2023-03-12T23:09:53.921Z,1009.47
2023-03-12T23:10:24.620Z,1009.47
2023-03-12T23:10:55.145Z,1009.47
2023-03-12T23:11:25.783Z,1009.45
2023-03-12T23:11:56.610Z,1009.47
2023-03-12T23:12:27.252Z,1009.47
2023-03-12T23:12:57.961Z,1009.46
2023-03-12T23:13:28.695Z,1009.47
2023-03-12T23:13:59.428Z,1009.45
2023-03-12T23:14:30.146Z,1009.42
2023-03-12T23:15:01.079Z,1009.43
2023-03-12T23:15:40.525Z,1009.42
2023-03-12T23:16:03.773Z,1009.42
2023-03-12T23:16:33.691Z,1009.44
2023-03-12T23:17:04.509Z,1009.45
2023-03-12T23:17:35.362Z,1009.45
2023-03-12T23:18:05.857Z,1009.45
2023-03-12T23:18:36.960Z,1009.44
2023-03-12T23:19:07.696Z,1009.43
2023-03-12T23:19:38.406Z,1009.44
2023-03-12T23:20:09.116Z,1009.43
2023-03-12T23:20:40.064Z,1009.40
2023-03-12T23:21:10.777Z,1009.41
2023-03-12T23:21:41.477Z,1009.38
2023-03-12T23:22:12.234Z,1009.37
2023-03-12T23:22:42.678Z,1009.36
2023-03-12T23:23:13.701Z,1009.35
2023-03-12T23:23:44.615Z,1009.35
2023-03-12T23:24:15.140Z,1009.35
2023-03-12T23:24:45.767Z,1009.35
2023-03-12T23:25:16.482Z,1009.33
2023-03-12T23:25:46.978Z,1009.32
2023-03-12T23:26:18.086Z,1009.32
2023-03-12T23:26:48.981Z,1009.31
2023-03-12T23:27:19.542Z,1009.29
2023-03-12T23:27:50.135Z,1009.28
2023-03-12T23:28:20.845Z,1009.29
2023-03-12T23:28:51.535Z,1009.26
2023-03-12T23:29:22.333Z,1009.24
2023-03-12T23:29:53.219Z,1009.23
2023-03-12T23:30:23.818Z,1009.23
2023-03-12T23:30:54.363Z,1009.23
2023-03-12T23:31:24.957Z,1009.22
2023-03-12T23:31:55.589Z,1009.22
2023-03-12T23:32:26.218Z,1009.22
2023-03-12T23:32:57.139Z,1009.18
2023-03-12T23:33:27.415Z,1009.15
2023-03-12T23:33:57.917Z,1009.14
2023-03-12T23:34:28.767Z,1009.14
2023-03-12T23:34:59.647Z,1009.12
2023-03-12T23:35:30.288Z,1009.14
2023-03-12T23:36:01.476Z,1009.12
2023-03-12T23:36:31.796Z,1009.14
2023-03-12T23:37:02.256Z,1009.12
2023-03-12T23:37:33.284Z,1009.10
2023-03-12T23:38:03.935Z,1009.07
2023-03-12T23:38:37.320Z,1009.07
2023-03-12T23:39:05.538Z,1009.06
2023-03-12T23:39:51.821Z,1009.06
